Home > Products > Valid Products > TAF

000
FTUS46 KSTO 290500
TAFRDD
TAF
KRDD 290522Z 2906/3006 18008KT P6SM SCT200
     FM290700 VRB05KT P6SM FEW200
     FM292200 17009KT P6SM FEW200
     FM300500 VRB05KT P6SM SCT250=



000
FTUS46 KSTO 290500
TAFSCK
TAF
KSCK 290522Z 2906/3006 31007KT P6SM FEW150 BKN200
     FM290800 VRB05KT P6SM FEW150 BKN200
     FM292000 27007KT P6SM FEW250
     FM300300 31009KT P6SM FEW250=



000
FTUS46 KSTO 290500
TAFSMF
TAF
KSMF 290522Z 2906/3006 16009KT P6SM FEW150 BKN200
     FM291400 VRB05KT P6SM BKN200
     FM292200 21007KT P6SM FEW250
     FM300100 18011KT P6SM SCT200=



000
FTUS46 KSTO 290500
TAFRBL
TAF
KRBL 290522Z 2906/3006 19007KT P6SM SCT200
     FM290700 VRB05KT P6SM FEW200
     FM292100 16009KT P6SM FEW200
     FM300500 VRB05KT P6SM SCT250=



000
FTUS46 KSTO 290500
TAFMHR
TAF
KMHR 290522Z 2906/3006 15005KT P6SM FEW150 BKN200
     FM290800 VRB05KT P6SM BKN250
     FM292200 25007KT P6SM FEW250
     FM300200 21008KT P6SM FEW250=



000
FTUS46 KSTO 290500
TAFSAC
TAF
KSAC 290522Z 2906/3006 20008KT P6SM FEW150 BKN200
     FM290800 17005KT P6SM BKN200
     FM292200 23007KT P6SM FEW250=



000
FTUS46 KSTO 282300
TAFSCK
TAF
KSCK 282324Z 2900/2924 25009KT P6SM BKN250
     FM290400 29010KT P6SM BKN150
     FM290700 35005KT P6SM BKN150 BKN250
     FM292000 27007KT P6SM FEW250=



000
FTUS46 KSTO 282300
TAFMHR
TAF
KMHR 282324Z 2900/2924 23008KT P6SM BKN250
     FM290600 15005KT P6SM BKN150
     FM290800 VRB05KT P6SM BKN250
     FM292200 25007KT P6SM FEW250=



000
FTUS46 KSTO 282300
TAFSMF
TAF
KSMF 282324Z 2900/2924 18012KT P6SM BKN250
     FM290600 16012KT P6SM BKN150
     FM290900 VRB05KT P6SM BKN200
     FM292200 23007KT P6SM FEW250=



000
FTUS46 KSTO 282300
TAFSAC
TAF
KSAC 282324Z 2900/2924 22010KT P6SM BKN250
     FM290600 17005KT P6SM BKN150
     FM291000 VRB05KT P6SM BKN250
     FM292200 23007KT P6SM FEW250=



000
FTUS46 KSTO 282300
TAFRBL
TAF
KRBL 282324Z 2900/2924 17011KT P6SM BKN200
     FM290400 VRB04KT P6SM BKN150
     FM292100 16009KT P6SM FEW200=



000
FTUS46 KSTO 282300
TAFRDD
TAF
KRDD 282324Z 2900/2924 17010KT P6SM BKN250
     FM290400 VRB02KT P6SM BKN150
     FM292200 17009KT P6SM FEW200=



000
FTUS46 KSTO 281700 RRA
TAFMHR
TAF
KMHR 281741Z 2818/2918 23008KT P6SM BKN200
     FM290500 15005KT P6SM OVC150
     FM291300 33005KT P6SM BKN250=



000
FTUS46 KSTO 281700 RRA
TAFRBL
TAF
KRBL 281741Z 2818/2918 VRB04KT P6SM FEW200
     FM282200 16010KT P6SM BKN200
     FM290400 VRB04KT P6SM BKN150=



000
FTUS46 KSTO 281700 RRA
TAFSMF
TAF
KSMF 281741Z 2818/2918 19007KT P6SM SCT200
     FM290100 17012KT P6SM OVC150
     FM291400 32006KT P6SM BKN250=



000
FTUS46 KSTO 281700 RRA
TAFRDD
TAF
KRDD 281741Z 2818/2918 VRB04KT P6SM FEW200
     FM282200 18010KT P6SM BKN200
     FM290400 VRB02KT P6SM BKN150=



000
FTUS46 KSTO 281700 RRA
TAFSAC
TAF
KSAC 281741Z 2818/2918 22010KT P6SM BKN200
     FM290500 17005KT P6SM OVC150
     FM291300 33005KT P6SM BKN250=



000
FTUS46 KSTO 281700 RRA
TAFSCK
TAF
KSCK 281741Z 2818/2918 VRB06KT P6SM BKN200
     FM282300 31010G17KT P6SM BKN150
     FM290500 35005KT P6SM BKN150 OVC250=



000
FTUS46 KSTO 281100
TAFSAC
TAF
KSAC 281120Z 2812/2912 VRB04KT P6SM SCT200
     FM282100 22010KT P6SM BKN200
     FM290600 17005KT P6SM OVC150=



000
FTUS46 KSTO 281100
TAFMHR
TAF
KMHR 281120Z 2812/2912 VRB04KT P6SM SCT200
     FM282000 23009KT P6SM BKN200
     FM290500 15005KT P6SM OVC150=



000
FTUS46 KSTO 281100
TAFRBL
TAF
KRBL 281120Z 2812/2912 VRB04KT P6SM FEW200
     FM282200 16010KT P6SM BKN200
     FM290400 VRB04KT P6SM BKN150=



000
FTUS46 KSTO 281100
TAFRDD
TAF
KRDD 281120Z 2812/2912 VRB04KT P6SM FEW200
     FM282200 18011KT P6SM BKN200
     FM290400 VRB03KT P6SM BKN150=



000
FTUS46 KSTO 281100
TAFSMF
TAF
KSMF 281120Z 2812/2912 15008KT P6SM SCT200
     FM282000 20011KT P6SM BKN200
     FM290600 15010KT P6SM OVC150=



000
FTUS46 KSTO 281100
TAFSCK
TAF
KSCK 281120Z 2812/2912 VRB06KT P6SM BKN200
     FM282300 31010G17KT P6SM BKN150
     FM290600 VRB05KT P6SM OVC150=



000
FTUS46 KSTO 280500
TAFSMF
TAF
KSMF 280530Z 2806/2906 17005KT P6SM SCT200
     FM282100 20007KT P6SM BKN200=



000
FTUS46 KSTO 280500
TAFSCK
TAF
KSCK 280530Z 2806/2906 31010KT P6SM SCT200=



000
FTUS46 KSTO 280500
TAFMHR
TAF
KMHR 280530Z 2806/2906 23005KT P6SM SCT200
     FM281900 23006KT P6SM BKN200=



000
FTUS46 KSTO 280500
TAFSAC
TAF
KSAC 280530Z 2806/2906 16010KT P6SM SCT200
     FM282100 22006KT P6SM BKN200=



000
FTUS46 KSTO 280500
TAFRBL
TAF
KRBL 280530Z 2806/2906 VRB04KT P6SM SKC
     FM282200 15009KT P6SM BKN200=



000
FTUS46 KSTO 280500
TAFRDD
TAF
KRDD 280530Z 2806/2906 VRB04KT P6SM SKC
     FM282100 17006KT P6SM BKN200=



000
FTUS46 KSTO 272300
TAFSMF
TAF
KSMF 272320Z 2800/2824 17005KT P6SM SCT250
     FM282100 20007KT P6SM BKN200=



000
FTUS46 KSTO 272300
TAFSCK
TAF
KSCK 272320Z 2800/2824 31012KT P6SM SCT250
     FM280700 34005KT P6SM FEW250
     FM282200 30010KT P6SM BKN200=



000
FTUS46 KSTO 272300
TAFMHR
TAF
KMHR 272320Z 2800/2824 15005KT P6SM SCT250
     FM280600 23005KT P6SM BKN200=



000
FTUS46 KSTO 272300
TAFSAC
TAF
KSAC 272320Z 2800/2824 16005KT P6SM SCT250
     FM280600 23006KT P6SM BKN200=



000
FTUS46 KSTO 272300
TAFRDD
TAF
KRDD 272320Z 2800/2824 VRB04KT P6SM SKC
     FM282100 17006KT P6SM BKN200=



000
FTUS46 KSTO 272300
TAFRBL
TAF
KRBL 272320Z 2800/2824 VRB04KT P6SM SKC
     FM282200 15009KT P6SM BKN200=



000
FTUS46 KSTO 271700
TAFSMF
TAF
KSMF 271737Z 2718/2818 20008KT P6SM BKN150 BKN250
     FM280600 16006KT P6SM BKN250=



000
FTUS46 KSTO 271700
TAFMHR
TAF
KMHR 271737Z 2718/2818 24007KT P6SM BKN150 BKN250
     FM280600 15005KT P6SM BKN150 BKN250=



000
FTUS46 KSTO 271700
TAFSAC
TAF
KSAC 271737Z 2718/2818 23008KT P6SM BKN150 BKN250
     FM280600 VRB05KT P6SM BKN150 BKN250=



000
FTUS46 KSTO 271700
TAFRDD
TAF
KRDD 271737Z 2718/2818 VRB04KT P6SM BKN150 BKN250
     FM272000 20007KT P6SM BKN150 BKN250
     FM280400 33004KT P6SM BKN250=



000
FTUS46 KSTO 271700
TAFSCK
TAF
KSCK 271737Z 2718/2818 33005KT P6SM BKN150 BKN250
     FM272100 31010KT P6SM BKN150 BKN250
     FM280600 33005KT P6SM BKN250=



000
FTUS46 KSTO 271700
TAFRBL
TAF
KRBL 271737Z 2718/2818 03005KT P6SM BKN150 BKN250
     FM271900 16009KT P6SM BKN150 BKN250
     FM280500 32005KT P6SM BKN250=



000
FTUS46 KSTO 271400 AAA
TAFSCK
TAF AMD
KSCK 271402Z 2714/2812 VRB05KT P6SM BKN250
     FM272200 31010KT P6SM BKN250
     FM280600 33005KT P6SM BKN250=



000
FTUS46 KSTO 271400 AAA
TAFMHR
TAF AMD
KMHR 271402Z 2714/2812 VRB05KT P6SM BKN250
     FM272000 24007KT P6SM BKN250
     FM280600 15005KT P6SM BKN250=



000
FTUS46 KSTO 271400 AAA
TAFSAC
TAF AMD
KSAC 271402Z 2714/2812 VRB05KT P6SM BKN250
     FM272000 23008KT P6SM BKN250
     FM280600 VRB05KT P6SM BKN250=



000
FTUS46 KSTO 271100
TAFSMF
TAF
KSMF 271120Z 2712/2812 16008KT P6SM BKN250
     FM271900 20008KT P6SM BKN250
     FM280600 16008KT P6SM BKN250=



000
FTUS46 KSTO 271100
TAFSAC
TAF
KSAC 271120Z 2712/2812 VRB05KT P6SM BKN250
      TEMPO 2713/2716 5SM FU
     FM272000 23008KT P6SM BKN250
     FM280600 VRB05KT P6SM BKN250=



000
FTUS46 KSTO 271100
TAFMHR
TAF
KMHR 271120Z 2712/2812 VRB05KT P6SM BKN250
      TEMPO 2713/2716 5SM FU FEW003
     FM272000 24007KT P6SM BKN250
     FM280600 15005KT P6SM BKN250=



000
FTUS46 KSTO 271100
TAFRDD
TAF
KRDD 271120Z 2712/2812 VRB04KT P6SM BKN250
     FM272000 18008KT P6SM BKN250
     FM280400 VRB04KT P6SM SCT250=



000
FTUS46 KSTO 271100
TAFRBL
TAF
KRBL 271120Z 2712/2812 33005KT P6SM BKN250
     FM272000 16009KT P6SM BKN250
     FM280400 VRB05KT P6SM SCT250=



000
FTUS46 KSTO 271100
TAFSCK
TAF
KSCK 271120Z 2712/2812 VRB05KT P6SM BKN250
      TEMPO 2713/2716 5SM FU
     FM272200 31010KT P6SM BKN250
     FM280600 33005KT P6SM BKN250=



000
FTUS46 KSTO 270500
TAFRBL
TAF
KRBL 270535Z 2706/2806 VRB04KT P6SM SCT250
     FM272000 16009KT P6SM BKN250=



000
FTUS46 KSTO 270500
TAFSCK
TAF
KSCK 270535Z 2706/2806 30009KT P6SM BKN200
      TEMPO 2713/2715 3SM FU SCT003=



000
FTUS46 KSTO 270500
TAFRDD
TAF
KRDD 270535Z 2706/2806 VRB04KT P6SM SCT250
     FM272000 18008KT P6SM BKN250=



000
FTUS46 KSTO 270500
TAFMHR
TAF
KMHR 270535Z 2706/2806 24009KT P6SM SCT200
      TEMPO 2709/2713 2SM FU BKN003
     FM272000 27007KT P6SM BKN250
     FM280200 21008KT P6SM BKN250=



000
FTUS46 KSTO 270500
TAFSAC
TAF
KSAC 270535Z 2706/2806 20006KT P6SM SCT200
      TEMPO 2710/2714 4SM FU SCT003
     FM272000 23008KT P6SM BKN250=



000
FTUS46 KSTO 270500
TAFSMF
TAF
KSMF 270535Z 2706/2806 18007KT P6SM SCT200
     FM271900 22008KT P6SM BKN250=



000
FTUS46 KSTO 262300
TAFSCK
TAF
KSCK 262323Z 2700/2724 31009KT P6SM FEW250
     FM270600 VRB04KT P6SM SCT250
      TEMPO 2713/2715 3SM FU SCT003
     FM272000 30008KT P6SM BKN250=



000
FTUS46 KSTO 262300
TAFSMF
TAF
KSMF 262323Z 2700/2724 20007KT P6SM FEW250
     FM270700 15006KT P6SM SCT250
     FM271900 20008KT P6SM BKN250=



000
FTUS46 KSTO 262300
TAFRBL
TAF
KRBL 262323Z 2700/2724 16009KT P6SM FEW250
     FM270400 32004KT P6SM SCT250
     FM272000 16009KT P6SM BKN250=



000
FTUS46 KSTO 262300
TAFMHR
TAF
KMHR 262323Z 2700/2724 25006KT P6SM FEW250
     FM270600 15004KT P6SM SCT250
      TEMPO 2709/2713 2SM FU BKN003
     FM272000 23007KT P6SM BKN250=



000
FTUS46 KSTO 262300
TAFRDD
TAF
KRDD 262323Z 2700/2724 21008KT P6SM FEW250
     FM270300 34003KT P6SM SCT250
     FM272000 18008KT P6SM BKN250=



000
FTUS46 KSTO 262300
TAFSAC
TAF
KSAC 262323Z 2700/2724 24007KT P6SM FEW250
     FM270600 17004KT P6SM SCT250
      TEMPO 2710/2714 4SM FU SCT003
     FM272000 22008KT P6SM BKN250=



000
FTUS46 KSTO 261700
TAFSAC
TAF
KSAC 261736Z 2618/2718 VRB04KT P6SM SKC
     FM262100 24007KT P6SM SCT250
     FM270600 17004KT P6SM BKN250=



000
FTUS46 KSTO 261700
TAFSCK
TAF
KSCK 261736Z 2618/2718 VRB04KT P6SM SKC
     FM262200 31009KT P6SM SCT250
     FM270600 VRB04KT P6SM BKN250=



000
FTUS46 KSTO 261700
TAFSMF
TAF
KSMF 261736Z 2618/2718 VRB05KT P6SM SKC
     FM262200 20007KT P6SM SCT250
     FM270600 15006KT P6SM BKN250=



000
FTUS46 KSTO 261700
TAFRDD
TAF
KRDD 261736Z 2618/2718 VRB04KT P6SM SKC
     FM262200 18008KT P6SM FEW250
     FM270400 VRB04KT P6SM BKN250=



000
FTUS46 KSTO 261700
TAFRBL
TAF
KRBL 261736Z 2618/2718 33006KT P6SM SKC
     FM262200 16009KT P6SM FEW250
     FM270400 VRB05KT P6SM BKN250=



000
FTUS46 KSTO 261700
TAFMHR
TAF
KMHR 261736Z 2618/2718 21004KT P6SM SKC
     FM262100 25006KT P6SM SCT250
     FM270600 15004KT P6SM BKN250=



000
FTUS46 KSTO 261600 AAB
TAFMHR
TAF AMD
KMHR 261630Z 2617/2712 21004KT P6SM SKC
     FM262100 25006KT P6SM SCT250
     FM270600 VRB04KT P6SM BKN250=



000
FTUS46 KSTO 261400 AAA
TAFMHR
TAF AMD
KMHR 261409Z 2614/2712 VRB03KT 2SM FU BKN003
     FM261700 25004KT 5SM FU SCT005
     FM262100 24006KT P6SM SCT250
     FM270600 VRB04KT P6SM BKN250=



000
FTUS46 KSTO 261100
TAFSAC
TAF
KSAC 261122Z 2612/2712 VRB04KT P6SM SKC
     FM262100 24007KT P6SM SCT250
     FM270600 VRB04KT P6SM BKN250=



000
FTUS46 KSTO 261100
TAFMHR
TAF
KMHR 261122Z 2612/2712 VRB04KT P6SM SKC
     FM262100 24006KT P6SM SCT250
     FM270600 VRB04KT P6SM BKN250=



000
FTUS46 KSTO 261100
TAFRDD
TAF
KRDD 261122Z 2612/2712 VRB04KT P6SM SKC
     FM262200 18008KT P6SM FEW250
     FM270400 VRB04KT P6SM BKN250=



000
FTUS46 KSTO 261100
TAFSCK
TAF
KSCK 261122Z 2612/2712 VRB04KT P6SM SKC
     FM262200 31008KT P6SM SCT250
     FM270600 VRB04KT P6SM BKN250=



000
FTUS46 KSTO 261100
TAFSMF
TAF
KSMF 261122Z 2612/2712 VRB05KT P6SM SKC
     FM262200 20007KT P6SM SCT250
     FM270600 15006KT P6SM BKN250=



000
FTUS46 KSTO 261100
TAFRBL
TAF
KRBL 261122Z 2612/2712 33006KT P6SM SKC
     FM262200 16009KT P6SM FEW250
     FM270400 VRB05KT P6SM BKN250=



    US Dept of Commerce
    National Oceanic and Atmospheric Administration
    National Weather Service
    1325 East West Highway
    Silver Spring, MD 20910
    Page Author: NWS Internet Services Team
Disclaimer
Information Quality
Credits
Glossary
Privacy Policy
Freedom of Information Act (FOIA)
About Us
Career Opportunities